Time;durP1;ratioP1;P1;durP2;ratioP2;P2;SDS_P1;SDS_P2;PMS_P1;PMS_P2;Temp;Humidity;BMP_temperature;BMP_pressure;BME280_temperature;BME280_humidity;BME280_pressure;Samples;Min_cycle;Max_cycle;Signal;HPM_P1;HPM_P2
2021/01/22 00:00:28;;;;;;;4.20;2.20;;;13.70;39.90;;;;;;5020459;28;20463;-85
2021/01/22 00:02:54;;;;;;;3.00;2.27;;;13.80;39.70;;;;;;5022004;28;20449;-86
2021/01/22 00:05:21;;;;;;;2.60;2.20;;;13.40;40.70;;;;;;5028772;28;20466;-84
2021/01/22 00:07:47;;;;;;;2.23;2.03;;;13.10;42.20;;;;;;5025977;28;20434;-84
2021/01/22 00:10:14;;;;;;;3.30;2.00;;;12.80;43.60;;;;;;5024716;28;20959;-84
2021/01/22 00:12:41;;;;;;;2.67;1.97;;;12.60;43.60;;;;;;5020752;28;20448;-84
2021/01/22 00:15:09;;;;;;;4.47;1.90;;;12.40;44.70;;;;;;5017848;28;20488;-85
2021/01/22 00:17:35;;;;;;;6.63;2.10;;;12.80;43.70;;;;;;5019192;28;20515;-85
2021/01/22 00:20:02;;;;;;;2.67;2.13;;;12.90;43.20;;;;;;5024046;28;20448;-86
2021/01/22 00:22:29;;;;;;;2.07;1.93;;;12.90;43.70;;;;;;5025162;28;20496;-84
2021/01/22 00:24:55;;;;;;;2.40;2.20;;;12.40;43.80;;;;;;5023642;28;20520;-85
2021/01/22 00:27:22;;;;;;;1.90;1.80;;;12.40;44.00;;;;;;5023589;28;20454;-84
2021/01/22 00:29:48;;;;;;;2.30;2.10;;;12.40;43.50;;;;;;5016918;28;20516;-85
2021/01/22 00:32:16;;;;;;;2.30;2.10;;;12.20;43.60;;;;;;5015941;28;20512;-85
2021/01/22 00:34:42;;;;;;;3.20;2.10;;;12.40;43.70;;;;;;5016009;28;20481;-85
2021/01/22 00:37:08;;;;;;;2.93;2.20;;;12.30;43.60;;;;;;5016138;28;20442;-86
2021/01/22 00:39:35;;;;;;;5.63;2.10;;;12.10;43.70;;;;;;5016505;28;20485;-85
2021/01/22 00:42:01;;;;;;;2.30;2.10;;;12.20;43.90;;;;;;5016175;28;20798;-85
2021/01/22 00:44:28;;;;;;;2.37;1.90;;;12.30;43.60;;;;;;5016103;28;21038;-85
2021/01/22 00:46:54;;;;;;;3.20;2.20;;;12.50;42.90;;;;;;5014889;28;20540;-85
2021/01/22 00:49:22;;;;;;;2.40;2.20;;;12.70;43.20;;;;;;5016104;28;20453;-85
2021/01/22 00:51:48;;;;;;;1.83;1.73;;;12.80;41.90;;;;;;5016095;28;20438;-85
2021/01/22 00:54:15;;;;;;;2.10;1.80;;;12.40;42.40;;;;;;5015380;28;20557;-85
2021/01/22 00:56:41;;;;;;;1.87;1.77;;;12.50;41.80;;;;;;5015921;28;20480;-85
2021/01/22 00:59:08;;;;;;;2.00;1.90;;;12.50;42.00;;;;;;5015469;28;20482;-85
2021/01/22 01:01:34;;;;;;;1.90;1.80;;;12.70;41.50;;;;;;5016175;28;20450;-85
2021/01/22 01:04:01;;;;;;;2.20;2.00;;;12.40;42.50;;;;;;5016863;28;20549;-85
2021/01/22 01:06:28;;;;;;;2.40;1.87;;;12.50;41.90;;;;;;5015931;28;20453;-85
2021/01/22 01:08:55;;;;;;;2.33;1.90;;;12.30;42.00;;;;;;5015571;28;20936;-85
2021/01/22 01:11:21;;;;;;;1.93;1.83;;;12.30;44.00;;;;;;5015414;28;21018;-85
2021/01/22 01:13:48;;;;;;;2.30;2.10;;;12.20;42.60;;;;;;5015707;28;20478;-85
2021/01/22 01:16:14;;;;;;;2.17;1.80;;;12.40;42.00;;;;;;5015686;28;20497;-85
2021/01/22 01:18:41;;;;;;;3.57;3.00;;;12.40;42.30;;;;;;5015313;28;21003;-85
2021/01/22 01:21:07;;;;;;;1.90;1.80;;;12.40;42.20;;;;;;5015919;28;20445;-85
2021/01/22 01:23:34;;;;;;;2.47;2.00;;;12.30;42.30;;;;;;5015646;28;20480;-85
2021/01/22 01:26:01;;;;;;;2.40;1.97;;;12.40;42.40;;;;;;5016214;28;20454;-85
2021/01/22 01:28:28;;;;;;;2.23;2.03;;;12.20;42.50;;;;;;5018807;28;20439;-85
2021/01/22 01:30:55;;;;;;;2.17;2.00;;;12.20;43.00;;;;;;5015778;28;20460;-85
2021/01/22 01:33:21;;;;;;;2.37;1.90;;;12.50;42.10;;;;;;5014923;28;20951;-85
2021/01/22 01:35:51;;;;;;;3.30;1.90;;;12.40;42.70;;;;;;5015449;28;20939;-85
2021/01/22 01:38:17;;;;;;;2.70;1.97;;;12.50;42.00;;;;;;5020774;28;20474;-85
2021/01/22 01:40:45;;;;;;;2.13;1.97;;;12.40;42.00;;;;;;5028798;28;20462;-85
2021/01/22 01:43:11;;;;;;;2.20;1.83;;;12.40;43.20;;;;;;5026556;28;20453;-85
2021/01/22 01:45:40;;;;;;;2.33;1.90;;;12.70;41.20;;;;;;5015335;28;20485;-85
2021/01/22 01:48:08;;;;;;;2.47;2.00;;;12.60;42.00;;;;;;5014913;28;20438;-85
2021/01/22 01:50:34;;;;;;;2.80;2.00;;;12.50;41.80;;;;;;5014644;28;20544;-85
2021/01/22 01:53:02;;;;;;;3.10;2.03;;;12.20;41.60;;;;;;5014880;28;20441;-85
2021/01/22 01:55:28;;;;;;;2.53;2.03;;;12.30;41.90;;;;;;5014829;28;20465;-85
2021/01/22 01:57:56;;;;;;;2.00;1.90;;;12.20;41.30;;;;;;5013840;28;20513;-85
2021/01/22 02:00:22;;;;;;;3.43;2.20;;;12.00;42.10;;;;;;5014719;28;20450;-85
2021/01/22 02:02:49;;;;;;;2.80;2.00;;;11.90;42.50;;;;;;5015049;28;20967;-85
2021/01/22 02:05:16;;;;;;;3.90;2.20;;;12.20;42.40;;;;;;5015001;28;20458;-85
2021/01/22 02:07:42;;;;;;;3.67;2.10;;;12.60;41.30;;;;;;5014733;28;20529;-85
2021/01/22 02:10:10;;;;;;;2.87;2.40;;;12.30;41.30;;;;;;5014987;28;20430;-85
2021/01/22 02:12:38;;;;;;;4.30;2.37;;;12.40;40.70;;;;;;5014664;28;20443;-85
2021/01/22 02:15:07;;;;;;;7.30;2.60;;;12.20;40.60;;;;;;5015028;28;20476;-85
2021/01/22 02:17:34;;;;;;;4.73;2.17;;;12.30;41.60;;;;;;5014598;28;20524;-85
2021/01/22 02:20:15;;;;;;;4.13;2.13;;;12.30;41.00;;;;;;5015016;28;20450;-85
2021/01/22 02:22:42;;;;;;;2.53;2.03;;;12.10;41.30;;;;;;5014508;28;20497;-85
2021/01/22 02:25:11;;;;;;;6.63;2.37;;;12.20;40.60;;;;;;5014264;28;20462;-85
2021/01/22 02:27:39;;;;;;;3.40;2.20;;;12.60;40.00;;;;;;5014660;28;20825;-85
2021/01/22 02:30:07;;;;;;;5.30;2.30;;;12.30;40.20;;;;;;5014919;28;20557;-85
2021/01/22 02:32:36;;;;;;;4.47;2.00;;;12.50;40.60;;;;;;5014349;28;20997;-85
2021/01/22 02:35:05;;;;;;;2.47;2.20;;;12.30;40.60;;;;;;5014169;28;21037;-85
2021/01/22 02:37:32;;;;;;;7.60;2.33;;;12.20;41.60;;;;;;5014473;28;20529;-85
2021/01/22 02:40:06;;;;;;;5.13;2.10;;;11.90;41.10;;;;;;5014269;28;20481;-85
2021/01/22 02:42:33;;;;;;;3.77;2.17;;;12.20;41.20;;;;;;5018497;28;20462;-85
2021/01/22 02:45:00;;;;;;;8.03;3.73;;;12.30;40.30;;;;;;5015083;28;20965;-86
2021/01/22 02:47:28;;;;;;;9.93;2.60;;;12.20;41.80;;;;;;5014039;28;20442;-85
2021/01/22 02:49:54;;;;;;;3.60;2.53;;;12.40;40.80;;;;;;5013851;28;20439;-85
2021/01/22 02:52:21;;;;;;;4.90;2.20;;;12.40;40.30;;;;;;5013859;28;20438;-85
2021/01/22 02:54:51;;;;;;;4.27;2.37;;;12.00;40.40;;;;;;5014507;28;20478;-85
2021/01/22 02:57:26;;;;;;;5.80;2.50;;;12.20;40.50;;;;;;5013830;28;20442;-85
2021/01/22 03:00:03;;;;;;;5.47;2.70;;;12.30;40.00;;;;;;5013978;28;20465;-85
2021/01/22 03:02:39;;;;;;;8.93;2.80;;;12.40;39.30;;;;;;5013887;28;20514;-85
2021/01/22 03:05:07;;;;;;;4.83;2.20;;;12.40;41.30;;;;;;5014184;28;20458;-85
2021/01/22 03:07:40;;;;;;;5.93;2.67;;;12.20;39.60;;;;;;5013908;28;20538;-85
2021/01/22 03:10:09;;;;;;;11.67;2.63;;;12.30;39.90;;;;;;5013863;28;20538;-85
2021/01/22 03:12:36;;;;;;;4.13;2.40;;;12.00;40.80;;;;;;5014465;28;20516;-85
2021/01/22 03:15:05;;;;;;;4.33;2.57;;;12.30;39.20;;;;;;5013818;28;20469;-85
2021/01/22 03:17:31;;;;;;;6.73;2.40;;;12.20;39.30;;;;;;5015967;28;20553;-85
2021/01/22 03:19:58;;;;;;;10.43;2.93;;;12.00;39.70;;;;;;5016010;28;20529;-85
2021/01/22 03:22:24;;;;;;;3.17;2.13;;;11.80;40.40;;;;;;5015333;28;20453;-85
2021/01/22 03:24:51;;;;;;;6.47;2.90;;;11.70;40.40;;;;;;5015379;28;20528;-85
2021/01/22 03:27:17;;;;;;;3.90;2.33;;;12.00;39.90;;;;;;5015363;28;21011;-85
2021/01/22 03:29:44;;;;;;;6.47;2.43;;;11.80;39.80;;;;;;5017372;28;20536;-85
2021/01/22 03:32:11;;;;;;;8.60;2.60;;;11.90;40.30;;;;;;5015344;28;20450;-85
2021/01/22 03:34:37;;;;;;;6.73;2.63;;;11.90;39.80;;;;;;5015746;28;20468;-85
2021/01/22 03:37:04;;;;;;;8.90;2.70;;;11.70;40.40;;;;;;5015156;28;20443;-85
2021/01/22 03:39:34;;;;;;;3.30;2.00;;;11.80;39.70;;;;;;5015645;28;20482;-85
2021/01/22 03:42:00;;;;;;;6.27;2.57;;;11.90;40.20;;;;;;5015338;28;20540;-85
2021/01/22 03:44:27;;;;;;;7.00;2.50;;;11.90;39.50;;;;;;5015436;28;21030;-85
2021/01/22 03:46:54;;;;;;;4.83;2.50;;;12.00;39.00;;;;;;5015376;28;20816;-85
2021/01/22 03:49:21;;;;;;;4.50;2.77;;;12.20;40.10;;;;;;5015446;28;20946;-85
2021/01/22 03:51:48;;;;;;;5.60;2.60;;;12.50;38.30;;;;;;5014996;28;20450;-85
2021/01/22 03:54:14;;;;;;;6.30;2.60;;;12.10;38.60;;;;;;5015099;28;20473;-85
2021/01/22 03:56:42;;;;;;;6.03;2.70;;;12.20;40.50;;;;;;5014985;28;20438;-85
2021/01/22 03:59:08;;;;;;;5.00;2.50;;;12.30;39.00;;;;;;5014614;28;20504;-85
2021/01/22 04:01:35;;;;;;;6.40;2.73;;;12.40;39.10;;;;;;5014130;28;20454;-85
2021/01/22 04:04:01;;;;;;;8.93;2.80;;;12.40;38.30;;;;;;5013362;28;20473;-84
2021/01/22 04:06:29;;;;;;;5.13;2.70;;;12.40;38.60;;;;;;5013030;28;20975;-85
2021/01/22 04:08:56;;;;;;;3.37;2.30;;;12.30;39.40;;;;;;5013289;28;20453;-85
2021/01/22 04:11:22;;;;;;;2.30;2.10;;;12.20;40.20;;;;;;5013469;28;20453;-85
2021/01/22 04:13:49;;;;;;;6.40;2.73;;;12.10;39.30;;;;;;5013265;28;20512;-85
2021/01/22 04:16:16;;;;;;;3.17;2.40;;;11.80;39.50;;;;;;5013367;28;20529;-85
2021/01/22 04:18:43;;;;;;;13.70;2.67;;;12.20;39.60;;;;;;5013146;28;20481;-85
2021/01/22 04:21:09;;;;;;;4.83;2.70;;;12.40;37.60;;;;;;5015786;28;20820;-85
2021/01/22 04:23:37;;;;;;;3.10;2.40;;;12.10;38.90;;;;;;5017024;28;21010;-85
2021/01/22 04:26:04;;;;;;;4.60;2.50;;;11.90;40.10;;;;;;5016435;28;20967;-85
2021/01/22 04:28:30;;;;;;;4.03;2.30;;;12.10;39.40;;;;;;5016755;28;20442;-85
2021/01/22 04:30:57;;;;;;;3.77;2.40;;;11.70;39.50;;;;;;5016001;28;20947;-85
2021/01/22 04:33:23;;;;;;;3.40;2.23;;;11.90;40.60;;;;;;5015833;28;20438;-85
2021/01/22 04:35:50;;;;;;;4.17;2.33;;;11.80;41.00;;;;;;5016178;28;20978;-85
2021/01/22 04:38:17;;;;;;;4.17;2.37;;;11.80;40.70;;;;;;5016512;28;20553;-85
2021/01/22 04:40:44;;;;;;;7.70;2.23;;;11.70;41.30;;;;;;5015860;28;20480;-85
2021/01/22 04:43:11;;;;;;;5.43;2.47;;;11.70;40.70;;;;;;5015761;28;20453;-85
2021/01/22 04:45:37;;;;;;;2.10;2.00;;;11.50;41.30;;;;;;5015788;28;20496;-85
2021/01/22 04:48:04;;;;;;;2.80;2.10;;;11.50;40.80;;;;;;5015863;28;20469;-85
2021/01/22 04:50:32;;;;;;;4.10;2.13;;;11.40;42.00;;;;;;5019371;28;20495;-85
2021/01/22 04:53:03;;;;;;;5.60;2.20;;;11.60;42.00;;;;;;5035498;28;20795;-85
2021/01/22 04:55:31;;;;;;;2.90;2.20;;;11.60;41.20;;;;;;5035793;28;20461;-85
2021/01/22 04:58:03;;;;;;;4.60;2.10;;;11.50;41.90;;;;;;5035306;28;20544;-85
2021/01/22 05:00:30;;;;;;;6.07;2.27;;;11.30;41.80;;;;;;5035795;28;20505;-85
2021/01/22 05:02:56;;;;;;;2.90;2.30;;;11.40;42.50;;;;;;5035580;28;20528;-85
2021/01/22 05:05:23;;;;;;;3.30;2.03;;;11.70;41.60;;;;;;5035883;28;20751;-85
2021/01/22 05:07:50;;;;;;;2.57;2.13;;;11.80;41.50;;;;;;5035543;28;20524;-85
2021/01/22 05:10:16;;;;;;;2.43;2.23;;;11.80;42.10;;;;;;5035242;28;20464;-85
2021/01/22 05:12:43;;;;;;;2.50;1.90;;;11.60;42.70;;;;;;5035541;28;20453;-85
2021/01/22 05:15:14;;;;;;;6.10;2.30;;;11.80;41.80;;;;;;5035807;28;20461;-85
2021/01/22 05:17:58;;;;;;;5.30;2.03;;;11.90;41.50;;;;;;5035494;28;20882;-85
2021/01/22 05:20:30;;;;;;;3.80;3.17;;;12.00;42.90;;;;;;5035343;28;20497;-85
2021/01/22 05:22:57;;;;;;;1.90;1.80;;;12.20;41.10;;;;;;5035185;28;20898;-85
2021/01/22 05:25:23;;;;;;;2.27;1.90;;;12.20;42.10;;;;;;5034608;28;20511;-85
2021/01/22 05:27:50;;;;;;;2.40;2.07;;;12.10;40.50;;;;;;5035051;28;20532;-85
2021/01/22 05:30:22;;;;;;;5.70;2.20;;;11.90;40.80;;;;;;5034941;28;20499;-85
2021/01/22 05:32:49;;;;;;;3.90;2.03;;;11.70;41.80;;;;;;5035509;28;20430;-85
2021/01/22 05:35:28;;;;;;;3.63;2.00;;;11.60;42.00;;;;;;5037342;28;20480;-85
2021/01/22 05:37:55;;;;;;;2.80;2.10;;;11.60;41.40;;;;;;5038052;28;20436;-85
2021/01/22 05:40:22;;;;;;;5.13;2.10;;;11.40;42.10;;;;;;5036067;28;21017;-85
2021/01/22 05:42:51;;;;;;;3.33;2.27;;;11.40;41.80;;;;;;5034886;28;20434;-85
2021/01/22 05:45:20;;;;;;;4.00;2.40;;;11.30;43.00;;;;;;5034841;28;21079;-85
2021/01/22 05:47:47;;;;;;;5.03;2.07;;;11.50;42.10;;;;;;5044380;28;20484;-85
2021/01/22 05:50:14;;;;;;;1.90;1.90;;;11.50;42.30;;;;;;5053419;28;20437;-85
2021/01/22 05:52:40;;;;;;;2.20;2.10;;;11.60;42.50;;;;;;5050116;28;20449;-85
2021/01/22 05:55:19;;;;;;;2.33;2.00;;;11.60;43.10;;;;;;5035605;28;20480;-85
2021/01/22 05:57:46;;;;;;;3.17;2.10;;;11.50;41.80;;;;;;5035707;28;20809;-85
2021/01/22 06:00:14;;;;;;;5.70;1.90;;;11.50;43.80;;;;;;5035241;28;20498;-85
2021/01/22 06:02:42;;;;;;;4.07;2.47;;;11.60;42.80;;;;;;5034544;28;20571;-85
2021/01/22 06:05:13;;;;;;;1.93;1.83;;;11.70;41.90;;;;;;5035628;28;20831;-85
2021/01/22 06:07:42;;;;;;;7.50;2.70;;;11.60;42.10;;;;;;5034903;28;20478;-85
2021/01/22 06:10:19;;;;;;;2.50;2.00;;;11.20;42.30;;;;;;5034226;28;20453;-85
2021/01/22 06:12:50;;;;;;;1.93;1.87;;;11.40;43.20;;;;;;5034696;28;20432;-85
2021/01/22 06:15:18;;;;;;;2.40;1.93;;;11.70;42.10;;;;;;5034841;28;20473;-85
2021/01/22 06:17:50;;;;;;;8.03;2.37;;;11.70;41.70;;;;;;5035040;28;20753;-85
2021/01/22 06:20:19;;;;;;;4.17;2.17;;;11.40;42.60;;;;;;5034667;28;20481;-85
2021/01/22 06:23:11;;;;;;;4.23;2.23;;;11.50;42.40;;;;;;5035433;28;20456;-85
2021/01/22 06:25:37;;;;;;;3.50;2.40;;;11.60;41.80;;;;;;5036023;28;20834;-85
2021/01/22 06:28:05;;;;;;;5.77;2.13;;;11.60;41.50;;;;;;5035079;28;20449;-85
2021/01/22 06:30:33;;;;;;;2.70;2.07;;;11.50;41.90;;;;;;5034072;28;20421;-85
2021/01/22 06:33:01;;;;;;;4.10;2.27;;;11.70;41.40;;;;;;5034768;28;20461;-85
2021/01/22 06:35:29;;;;;;;4.90;2.40;;;11.70;41.80;;;;;;5034069;28;20894;-85
2021/01/22 06:37:56;;;;;;;5.47;2.07;;;11.70;41.50;;;;;;5034349;28;20445;-85
2021/01/22 06:40:23;;;;;;;8.30;2.47;;;11.50;41.80;;;;;;5033726;28;20970;-85
2021/01/22 06:42:51;;;;;;;5.63;2.60;;;11.40;42.30;;;;;;5034667;28;20453;-85
2021/01/22 06:45:19;;;;;;;5.20;2.07;;;11.30;43.70;;;;;;5032920;28;20526;-85
2021/01/22 06:48:05;;;;;;;3.33;2.30;;;11.20;42.20;;;;;;5034065;28;21062;-85
2021/01/22 06:50:33;;;;;;;3.30;2.60;;;11.30;42.00;;;;;;5035173;28;20422;-85
2021/01/22 06:53:11;;;;;;;3.70;2.20;;;11.20;42.00;;;;;;5034247;28;20445;-85
2021/01/22 06:56:09;;;;;;;4.43;2.53;;;11.30;42.50;;;;;;5033890;28;20560;-85
2021/01/22 06:58:36;;;;;;;3.93;2.27;;;11.50;41.30;;;;;;5033853;28;20666;-85
2021/01/22 07:01:06;;;;;;;9.33;2.63;;;11.40;42.10;;;;;;5033380;28;20895;-85
2021/01/22 07:03:49;;;;;;;6.27;2.27;;;11.40;42.60;;;;;;5033084;28;20449;-85
2021/01/22 07:06:48;;;;;;;6.87;2.53;;;11.30;41.50;;;;;;5033507;28;20477;-85
2021/01/22 07:09:16;;;;;;;3.00;2.10;;;11.30;41.70;;;;;;5033481;28;20465;-85
2021/01/22 07:11:56;;;;;;;4.20;2.30;;;11.30;41.40;;;;;;5033513;28;20452;-85
2021/01/22 07:14:36;;;;;;;2.93;1.90;;;11.50;41.60;;;;;;5034065;28;20508;-85
2021/01/22 07:17:04;;;;;;;6.40;2.23;;;11.40;42.10;;;;;;5033545;28;20418;-85
2021/01/22 07:19:32;;;;;;;6.40;2.67;;;11.40;41.30;;;;;;5035041;28;21036;-85
2021/01/22 07:22:00;;;;;;;2.60;2.13;;;11.50;41.10;;;;;;5033656;28;20444;-85
2021/01/22 07:24:27;;;;;;;2.70;2.23;;;11.40;41.10;;;;;;5033668;28;20556;-85
2021/01/22 07:26:54;;;;;;;3.07;2.07;;;11.60;41.20;;;;;;5033813;28;20460;-86
2021/01/22 07:29:24;;;;;;;9.60;2.50;;;11.40;41.00;;;;;;5033526;28;20815;-85
2021/01/22 07:31:59;;;;;;;6.83;2.87;;;11.30;41.70;;;;;;5033815;28;20497;-85
2021/01/22 07:34:41;;;;;;;7.53;2.27;;;11.60;41.40;;;;;;5035691;28;20473;-86
2021/01/22 07:37:09;;;;;;;4.20;2.30;;;11.60;41.40;;;;;;5035799;28;20433;-86
2021/01/22 07:39:36;;;;;;;11.67;2.87;;;11.40;42.00;;;;;;5034511;28;20568;-86
2021/01/22 07:42:07;;;;;;;3.43;2.27;;;11.50;42.10;;;;;;5033274;28;20477;-85
2021/01/22 07:44:34;;;;;;;7.80;2.57;;;11.60;41.70;;;;;;5033125;28;20915;-85
2021/01/22 07:47:01;;;;;;;5.00;2.20;;;11.60;41.30;;;;;;5033138;28;20537;-85
2021/01/22 07:49:27;;;;;;;7.73;2.90;;;11.60;41.70;;;;;;5033414;28;20943;-85
2021/01/22 07:51:55;;;;;;;9.60;2.47;;;11.90;41.80;;;;;;5032812;28;20963;-86
2021/01/22 07:54:21;;;;;;;4.07;2.20;;;11.80;42.40;;;;;;5032967;28;20457;-86
2021/01/22 07:56:48;;;;;;;2.47;1.97;;;11.60;41.00;;;;;;5036426;28;20846;-86
2021/01/22 07:59:15;;;;;;;3.17;2.20;;;11.60;41.70;;;;;;5037421;28;20519;-86
2021/01/22 08:01:42;;;;;;;2.93;2.23;;;11.60;41.60;;;;;;5035965;28;20459;-85
2021/01/22 08:04:09;;;;;;;3.00;2.07;;;11.60;42.30;;;;;;5036850;28;20982;-86
2021/01/22 08:06:46;;;;;;;3.90;2.10;;;11.60;41.20;;;;;;5036459;28;21034;-85
2021/01/22 08:09:14;;;;;;;3.50;2.10;;;11.70;41.90;;;;;;5037994;28;20547;-85
2021/01/22 08:11:41;;;;;;;5.30;2.60;;;11.70;41.30;;;;;;5037191;28;20460;-85
2021/01/22 08:14:08;;;;;;;2.80;2.17;;;12.10;40.30;;;;;;5036711;28;20477;-86
2021/01/22 08:16:36;;;;;;;6.17;2.37;;;12.10;40.70;;;;;;5036524;28;20480;-86
2021/01/22 08:19:04;;;;;;;3.27;2.33;;;12.50;40.20;;;;;;5036430;28;20483;-85
2021/01/22 08:21:32;;;;;;;2.97;2.30;;;12.50;40.40;;;;;;5036333;28;20501;-85
2021/01/22 08:23:59;;;;;;;5.20;2.10;;;12.90;38.10;;;;;;5036000;28;20465;-85
2021/01/22 08:26:28;;;;;;;5.70;2.83;;;12.90;39.10;;;;;;5036459;28;21046;-85
2021/01/22 08:28:56;;;;;;;4.73;2.23;;;12.80;39.90;;;;;;5036337;28;20487;-85
2021/01/22 08:31:22;;;;;;;2.70;2.17;;;13.10;39.30;;;;;;5036550;28;20476;-85
2021/01/22 08:33:49;;;;;;;6.40;2.23;;;13.10;38.30;;;;;;5035799;28;20932;-85
2021/01/22 08:36:16;;;;;;;3.20;2.80;;;13.00;38.10;;;;;;5036370;28;20512;-85
2021/01/22 08:38:43;;;;;;;4.43;2.40;;;12.80;38.40;;;;;;5035866;28;20567;-86
2021/01/22 08:41:23;;;;;;;4.13;2.20;;;12.70;39.00;;;;;;5036019;28;21020;-85
2021/01/22 08:43:51;;;;;;;2.30;2.00;;;12.60;39.10;;;;;;5035753;28;20949;-85
2021/01/22 08:46:18;;;;;;;3.73;2.10;;;13.10;38.30;;;;;;5036775;28;20463;-86
2021/01/22 08:48:45;;;;;;;3.93;2.20;;;13.10;38.90;;;;;;5036717;28;20800;-85
2021/01/22 08:51:11;;;;;;;5.93;2.40;;;13.00;39.50;;;;;;5036189;28;20537;-85
2021/01/22 08:53:50;;;;;;;2.60;1.80;;;12.80;39.50;;;;;;5036196;28;20555;-85
2021/01/22 08:56:18;;;;;;;3.87;2.10;;;12.80;38.50;;;;;;5036380;28;20518;-85
2021/01/22 08:58:58;;;;;;;3.30;2.30;;;12.70;39.70;;;;;;5037597;28;20485;-85
2021/01/22 09:01:49;;;;;;;3.40;2.10;;;12.70;39.20;;;;;;5041849;28;20487;-85
2021/01/22 09:04:26;;;;;;;3.73;2.07;;;12.80;39.80;;;;;;5051393;28;20441;-85
2021/01/22 09:06:54;;;;;;;2.03;1.90;;;12.70;39.60;;;;;;5056993;28;20415;-86
2021/01/22 09:09:38;;;;;;;2.47;2.30;;;12.70;39.70;;;;;;5046583;28;20902;-85
2021/01/22 09:12:13;;;;;;;4.20;2.50;;;12.60;40.10;;;;;;5058096;28;20436;-84
2021/01/22 09:14:51;;;;;;;4.13;2.10;;;12.60;40.60;;;;;;5044395;28;20555;-85
2021/01/22 09:17:23;;;;;;;2.93;2.23;;;12.80;41.10;;;;;;5038089;28;20434;-85
2021/01/22 09:19:55;;;;;;;2.53;2.20;;;12.90;40.40;;;;;;5042084;28;20495;-85
2021/01/22 09:22:30;;;;;;;2.73;2.03;;;13.20;39.80;;;;;;5040226;28;20451;-86
2021/01/22 09:24:57;;;;;;;2.30;1.90;;;13.50;38.90;;;;;;5038619;28;20481;-85
2021/01/22 09:27:23;;;;;;;2.53;2.10;;;13.50;39.20;;;;;;5039042;28;20472;-86
2021/01/22 09:29:50;;;;;;;3.90;2.03;;;13.50;39.40;;;;;;5038586;28;20447;-85
2021/01/22 09:32:17;;;;;;;2.50;2.20;;;13.40;39.70;;;;;;5037734;28;20478;-85
2021/01/22 09:34:44;;;;;;;2.57;2.37;;;13.20;39.70;;;;;;5038951;28;20508;-85
2021/01/22 09:37:10;;;;;;;3.80;2.20;;;13.80;39.90;;;;;;5039573;28;20457;-86
2021/01/22 09:39:37;;;;;;;2.80;2.20;;;13.70;38.80;;;;;;5038600;28;20487;-86
2021/01/22 09:42:04;;;;;;;2.50;2.30;;;13.40;39.60;;;;;;5037126;28;20456;-86
2021/01/22 09:44:30;;;;;;;3.57;2.50;;;13.50;39.90;;;;;;5038816;28;20523;-86
2021/01/22 09:46:58;;;;;;;3.53;2.20;;;13.50;39.00;;;;;;5037302;28;20528;-86
2021/01/22 09:49:24;;;;;;;3.70;1.90;;;13.60;39.10;;;;;;5037673;28;20830;-86
2021/01/22 09:51:51;;;;;;;2.27;2.03;;;13.90;39.00;;;;;;5036953;28;20582;-86
2021/01/22 09:54:17;;;;;;;2.67;2.20;;;14.20;39.10;;;;;;5036756;28;20473;-86
2021/01/22 09:56:44;;;;;;;2.00;1.80;;;14.00;39.10;;;;;;5042237;28;20536;-85
2021/01/22 09:59:11;;;;;;;5.47;2.30;;;13.80;38.90;;;;;;5050272;28;20475;-86
2021/01/22 10:01:38;;;;;;;14.70;2.20;;;13.80;39.20;;;;;;5050646;28;20460;-86
2021/01/22 10:04:05;;;;;;;2.67;2.40;;;13.80;38.90;;;;;;5042817;28;21004;-86
2021/01/22 10:06:33;;;;;;;2.47;2.00;;;14.20;39.30;;;;;;5041945;28;20820;-85
2021/01/22 10:09:00;;;;;;;5.00;2.07;;;14.10;39.10;;;;;;5044092;28;20437;-86
2021/01/22 10:11:26;;;;;;;2.57;1.97;;;14.50;38.70;;;;;;5042628;28;20571;-85
2021/01/22 10:13:56;;;;;;;3.63;2.10;;;15.00;38.20;;;;;;5038684;28;20531;-86
2021/01/22 10:16:26;;;;;;;3.83;2.43;;;15.20;37.40;;;;;;5035097;28;20484;-86
2021/01/22 10:18:54;;;;;;;2.23;2.03;;;14.90;37.80;;;;;;5024975;28;20478;-86
2021/01/22 10:21:21;;;;;;;4.50;2.10;;;14.80;37.40;;;;;;5021611;28;20464;-86
2021/01/22 10:23:49;;;;;;;2.20;2.00;;;15.00;37.30;;;;;;5025213;28;20482;-86
2021/01/22 10:26:16;;;;;;;6.33;2.10;;;14.80;37.70;;;;;;5021465;28;20476;-86
2021/01/22 10:28:43;;;;;;;10.07;2.50;;;14.90;37.50;;;;;;5032384;28;20461;-86
2021/01/22 10:31:10;;;;;;;2.97;2.50;;;15.10;36.80;;;;;;5026032;28;20782;-86
2021/01/22 10:33:37;;;;;;;2.70;2.10;;;15.20;35.80;;;;;;5013296;28;20813;-86
2021/01/22 10:36:04;;;;;;;2.97;2.27;;;15.20;36.20;;;;;;5013524;28;20880;-86
2021/01/22 10:38:32;;;;;;;2.30;2.17;;;14.80;36.60;;;;;;5013647;28;20465;-86
2021/01/22 10:40:59;;;;;;;3.83;2.83;;;14.70;37.00;;;;;;5013886;28;20461;-86
2021/01/22 10:43:26;;;;;;;2.77;2.20;;;14.80;36.80;;;;;;5019018;28;20468;-86
2021/01/22 10:45:53;;;;;;;3.33;1.90;;;15.30;36.20;;;;;;5026700;28;20473;-84
2021/01/22 10:48:20;;;;;;;2.20;1.93;;;15.30;35.60;;;;;;5013349;28;20457;-88
2021/01/22 10:50:48;;;;;;;2.70;2.13;;;15.60;36.10;;;;;;5018966;28;20980;-87
2021/01/22 10:53:15;;;;;;;1.90;1.90;;;16.10;34.60;;;;;;5027428;28;20530;-84
2021/01/22 10:55:42;;;;;;;3.60;3.00;;;15.90;34.40;;;;;;5019525;28;20517;-84
2021/01/22 10:58:09;;;;;;;10.70;2.20;;;16.60;33.90;;;;;;5031399;28;20587;-84
2021/01/22 11:00:35;;;;;;;3.40;1.97;;;17.00;33.00;;;;;;5032109;28;20508;-84
2021/01/22 11:03:02;;;;;;;2.43;2.23;;;17.30;32.60;;;;;;5028166;28;20461;-84
2021/01/22 11:05:28;;;;;;;3.00;1.80;;;17.40;32.50;;;;;;5014617;28;20613;-84
2021/01/22 11:07:55;;;;;;;2.63;2.13;;;17.50;32.30;;;;;;5013364;28;20923;-84
2021/01/22 11:10:21;;;;;;;6.70;4.33;;;17.80;31.50;;;;;;5017155;28;20541;-84
2021/01/22 11:12:49;;;;;;;2.23;1.70;;;17.20;30.70;;;;;;5028377;28;20871;-84
2021/01/22 11:15:16;;;;;;;4.90;2.00;;;16.80;30.90;;;;;;5016008;28;20997;-85
2021/01/22 11:17:42;;;;;;;2.80;1.97;;;17.00;30.90;;;;;;5029221;28;20493;-84
2021/01/22 11:20:10;;;;;;;2.47;1.93;;;16.80;30.70;;;;;;5016106;28;20485;-86
2021/01/22 11:22:36;;;;;;;3.30;1.90;;;16.70;30.70;;;;;;5033963;28;20460;-86
2021/01/22 11:25:04;;;;;;;6.50;2.17;;;16.60;31.20;;;;;;5031690;28;20514;-86
2021/01/22 11:27:30;;;;;;;2.73;2.07;;;16.90;32.70;;;;;;5021108;28;20797;-86
2021/01/22 11:29:58;;;;;;;3.60;2.00;;;16.90;30.40;;;;;;5018419;28;20450;-85
2021/01/22 11:32:25;;;;;;;4.70;1.93;;;16.90;29.70;;;;;;5030177;28;20800;-85
2021/01/22 11:34:51;;;;;;;3.10;2.17;;;17.20;29.90;;;;;;5027456;28;20512;-86
2021/01/22 11:37:18;;;;;;;3.10;1.83;;;17.40;31.00;;;;;;5029356;28;20454;-86
2021/01/22 11:39:45;;;;;;;5.67;2.40;;;17.80;29.10;;;;;;5029530;28;20505;-85
2021/01/22 11:42:11;;;;;;;1.90;1.80;;;17.30;28.90;;;;;;5011782;28;20450;-85
2021/01/22 11:44:38;;;;;;;4.87;1.80;;;17.00;29.50;;;;;;5007577;28;20463;-86
2021/01/22 11:47:06;;;;;;;2.87;1.77;;;16.70;30.00;;;;;;5008140;28;20462;-86
2021/01/22 11:49:33;;;;;;;2.43;2.07;;;17.20;29.80;;;;;;5034452;28;20448;-86
2021/01/22 11:51:59;;;;;;;11.53;2.07;;;17.20;29.30;;;;;;5021962;28;20461;-86
2021/01/22 11:54:26;;;;;;;2.63;1.90;;;17.40;29.30;;;;;;5020621;28;20465;-86
2021/01/22 11:56:52;;;;;;;2.17;1.93;;;17.60;29.80;;;;;;5036987;28;20453;-86
2021/01/22 11:59:19;;;;;;;2.23;2.03;;;17.70;28.60;;;;;;5039952;28;20472;-86
2021/01/22 12:01:47;;;;;;;1.83;1.70;;;17.90;29.10;;;;;;5041673;28;20457;-86
2021/01/22 12:04:15;;;;;;;2.17;1.80;;;17.90;28.40;;;;;;5044197;28;20974;-87
2021/01/22 12:06:41;;;;;;;2.87;1.80;;;18.30;28.10;;;;;;5038475;28;20460;-86
2021/01/22 12:09:08;;;;;;;2.27;1.90;;;18.30;28.70;;;;;;5037283;28;20942;-86
2021/01/22 12:11:35;;;;;;;5.00;1.93;;;18.00;28.50;;;;;;5005435;28;20470;-87
2021/01/22 12:14:01;;;;;;;2.17;1.73;;;17.40;28.20;;;;;;4997517;28;20523;-86
2021/01/22 12:16:28;;;;;;;2.77;2.20;;;17.00;28.60;;;;;;4997190;28;20996;-86
2021/01/22 12:18:54;;;;;;;2.43;1.70;;;17.10;28.10;;;;;;5026715;28;20477;-86
2021/01/22 12:21:21;;;;;;;2.27;1.77;;;17.10;28.70;;;;;;5034794;28;20548;-86
2021/01/22 12:23:48;;;;;;;4.50;2.00;;;17.00;28.40;;;;;;5036439;28;20473;-86
2021/01/22 12:26:14;;;;;;;4.20;1.73;;;17.10;28.80;;;;;;5035982;28;20511;-86
2021/01/22 12:28:41;;;;;;;2.27;1.87;;;17.30;28.00;;;;;;5036166;28;20517;-86
2021/01/22 12:31:09;;;;;;;3.03;1.70;;;17.30;28.50;;;;;;5035296;28;20465;-86
2021/01/22 12:33:35;;;;;;;3.53;1.60;;;17.50;28.60;;;;;;5036139;28;20452;-86
2021/01/22 12:36:03;;;;;;;2.60;2.00;;;17.50;28.70;;;;;;5036047;28;20490;-86
2021/01/22 12:38:30;;;;;;;2.40;1.80;;;17.10;27.90;;;;;;5044851;28;20430;-86
2021/01/22 12:40:57;;;;;;;1.80;1.70;;;17.10;28.00;;;;;;5037322;28;20429;-86
2021/01/22 12:43:23;;;;;;;3.07;1.97;;;17.10;28.40;;;;;;5038916;28;20457;-86
2021/01/22 12:45:50;;;;;;;1.73;1.63;;;16.80;28.10;;;;;;5036175;28;20794;-86
2021/01/22 12:48:16;;;;;;;2.00;1.90;;;16.70;28.60;;;;;;5036062;28;20432;-86
2021/01/22 12:50:44;;;;;;;4.50;1.70;;;16.70;28.70;;;;;;5036548;28;20818;-86